Time;durP1;ratioP1;P1;durP2;ratioP2;P2;SDS_P1;SDS_P2;PMS_P1;PMS_P2;Temp;Humidity;BMP_temperature;BMP_pressure;BME280_temperature;BME280_humidity;BME280_pressure;Samples;Min_cycle;Max_cycle;Signal;HPM_P1;HPM_P2
2021/11/03 00:01:46;;;;;;;17.60;13.88;;;;;;;;;;5047328;28;20029;-85
2021/11/03 00:04:12;;;;;;;25.63;16.25;;;;;;;;;;5036480;28;20029;-84
2021/11/03 00:06:40;;;;;;;28.80;17.38;;;;;;;;;;5047689;28;20339;-85
2021/11/03 00:09:06;;;;;;;28.65;18.08;;;;;;;;;;5021547;28;20332;-84
2021/11/03 00:11:32;;;;;;;24.08;17.08;;;;;;;;;;5039106;28;20033;-85
2021/11/03 00:13:58;;;;;;;27.33;16.65;;;;;;;;;;5039274;28;20096;-85
2021/11/03 00:16:24;;;;;;;22.67;15.07;;;;;;;;;;5039071;28;20044;-84
2021/11/03 00:18:50;;;;;;;30.02;16.73;;;;;;;;;;5038595;28;20059;-83
2021/11/03 00:21:16;;;;;;;31.67;17.13;;;;;;;;;;5052906;28;20021;-85
2021/11/03 00:23:42;;;;;;;27.77;16.70;;;;;;;;;;5056372;28;20040;-82
2021/11/03 00:26:09;;;;;;;26.30;16.33;;;;;;;;;;5058422;28;20025;-83
2021/11/03 00:28:53;;;;;;;28.38;16.15;;;;;;;;;;5049479;28;20428;-83
2021/11/03 00:31:19;;;;;;;21.35;15.10;;;;;;;;;;5020794;28;20033;-84
2021/11/03 00:33:46;;;;;;;22.40;14.90;;;;;;;;;;5038535;28;20060;-84
2021/11/03 00:36:12;;;;;;;19.55;14.50;;;;;;;;;;5038195;28;20474;-84
2021/11/03 00:38:38;;;;;;;30.58;21.48;;;;;;;;;;5038755;28;20029;-84
2021/11/03 00:41:04;;;;;;;26.23;18.23;;;;;;;;;;5038310;28;20021;-86
2021/11/03 00:43:30;;;;;;;30.13;16.85;;;;;;;;;;5020822;28;20022;-85
2021/11/03 00:45:56;;;;;;;25.35;16.15;;;;;;;;;;5038164;28;20045;-85
2021/11/03 00:48:22;;;;;;;20.25;14.20;;;;;;;;;;5038481;28;20021;-84
2021/11/03 00:50:49;;;;;;;18.60;14.52;;;;;;;;;;5049909;28;20108;-85
2021/11/03 00:53:15;;;;;;;22.55;15.38;;;;;;;;;;5058326;28;20067;-84
2021/11/03 00:55:43;;;;;;;23.58;15.73;;;;;;;;;;5044212;28;20083;-84
2021/11/03 00:58:09;;;;;;;21.83;15.70;;;;;;;;;;5038326;28;20045;-84
2021/11/03 01:00:35;;;;;;;22.85;15.93;;;;;;;;;;5031800;28;20372;-84
2021/11/03 01:03:01;;;;;;;25.75;16.83;;;;;;;;;;5056608;28;20037;-84
2021/11/03 01:05:28;;;;;;;21.50;16.30;;;;;;;;;;5057924;28;20044;-84
2021/11/03 01:07:54;;;;;;;24.35;16.55;;;;;;;;;;5057893;28;20025;-84
2021/11/03 01:10:23;;;;;;;23.08;16.02;;;;;;;;;;5056832;28;20025;-83
2021/11/03 01:15:57;;;;;;;28.27;18.00;;;;;;;;;;5037757;28;20060;-84
2021/11/03 01:18:23;;;;;;;44.97;25.83;;;;;;;;;;5038161;28;20032;-83
2021/11/03 01:20:49;;;;;;;39.92;24.15;;;;;;;;;;5057479;28;20358;-84
2021/11/03 01:23:15;;;;;;;33.88;20.35;;;;;;;;;;5057871;28;20044;-84
2021/11/03 01:25:41;;;;;;;25.35;15.43;;;;;;;;;;5040299;28;20053;-85
2021/11/03 01:28:07;;;;;;;18.98;12.93;;;;;;;;;;5041991;28;20100;-84
2021/11/03 01:30:33;;;;;;;17.45;11.93;;;;;;;;;;5056407;28;20032;-84
2021/11/03 01:32:59;;;;;;;16.13;11.00;;;;;;;;;;5057609;28;20036;-83
2021/11/03 01:35:26;;;;;;;13.55;9.50;;;;;;;;;;5045926;28;20046;-84
2021/11/03 01:37:52;;;;;;;18.60;12.93;;;;;;;;;;5042367;28;20059;-84
2021/11/03 01:40:20;;;;;;;25.05;15.90;;;;;;;;;;5037316;28;20021;-83
2021/11/03 01:42:46;;;;;;;21.52;13.82;;;;;;;;;;5020084;28;20409;-83
2021/11/03 01:45:13;;;;;;;20.42;13.55;;;;;;;;;;5022884;28;20033;-83
2021/11/03 01:47:51;;;;;;;12.35;9.82;;;;;;;;;;5056350;28;20048;-84
2021/11/03 01:50:17;;;;;;;13.82;10.30;;;;;;;;;;5057068;28;20037;-84
2021/11/03 01:52:44;;;;;;;12.88;9.05;;;;;;;;;;5057464;28;20025;-83
2021/11/03 01:55:12;;;;;;;14.38;9.57;;;;;;;;;;5044073;28;20474;-83
2021/11/03 01:57:41;;;;;;;10.57;8.10;;;;;;;;;;5019870;28;20064;-83
2021/11/03 02:03:14;;;;;;;15.65;9.05;;;;;;;;;;5057494;28;20044;-83
2021/11/03 02:05:43;;;;;;;10.07;8.65;;;;;;;;;;5056981;28;20033;-84
2021/11/03 02:08:09;;;;;;;14.10;9.00;;;;;;;;;;5055864;28;20021;-84
2021/11/03 02:10:35;;;;;;;12.65;9.23;;;;;;;;;;5019270;28;20049;-84
2021/11/03 02:13:05;;;;;;;15.13;10.18;;;;;;;;;;5036803;28;20029;-84
2021/11/03 02:15:33;;;;;;;18.85;11.38;;;;;;;;;;5038718;28;20030;-84
2021/11/03 02:17:59;;;;;;;19.95;13.10;;;;;;;;;;5055128;28;20029;-84
2021/11/03 02:20:26;;;;;;;28.15;16.98;;;;;;;;;;5057037;28;20032;-84
2021/11/03 02:23:00;;;;;;;36.80;19.58;;;;;;;;;;5056138;28;20407;-84
2021/11/03 02:25:29;;;;;;;34.22;19.02;;;;;;;;;;5056012;28;20029;-84
2021/11/03 02:27:57;;;;;;;35.47;17.60;;;;;;;;;;5057205;28;20025;-83
2021/11/03 02:30:25;;;;;;;32.05;18.35;;;;;;;;;;5056861;28;20100;-84
2021/11/03 02:32:56;;;;;;;32.15;17.17;;;;;;;;;;5048122;28;20036;-84
2021/11/03 02:35:22;;;;;;;26.25;15.73;;;;;;;;;;5055867;28;20110;-84
2021/11/03 02:37:49;;;;;;;22.13;13.75;;;;;;;;;;5055933;28;20067;-83
2021/11/03 02:40:15;;;;;;;29.38;16.10;;;;;;;;;;5047861;28;20476;-83
2021/11/03 02:42:47;;;;;;;20.67;13.57;;;;;;;;;;5018810;28;20073;-83
2021/11/03 02:45:52;;;;;;;21.77;14.33;;;;;;;;;;5056456;28;20056;-84
2021/11/03 02:48:19;;;;;;;40.80;20.60;;;;;;;;;;4941575;29;20270;-85
2021/11/03 02:50:52;;;;;;;45.38;25.42;;;;;;;;;;4941372;29;20067;-84
2021/11/03 02:53:18;;;;;;;23.23;15.15;;;;;;;;;;4941508;29;20035;-85
2021/11/03 02:55:44;;;;;;;19.88;13.23;;;;;;;;;;4941990;29;20027;-84
2021/11/03 03:01:19;;;;;;;38.22;21.73;;;;;;;;;;4960893;29;20110;-85
2021/11/03 03:03:46;;;;;;;39.97;20.42;;;;;;;;;;4960414;29;20030;-85
2021/11/03 03:06:15;;;;;;;34.22;18.15;;;;;;;;;;4960262;29;20045;-84
2021/11/03 03:08:41;;;;;;;27.35;15.55;;;;;;;;;;4960292;29;20028;-85
2021/11/03 03:11:07;;;;;;;28.63;17.30;;;;;;;;;;4944189;29;20111;-85
2021/11/03 03:13:34;;;;;;;26.65;17.10;;;;;;;;;;4960254;29;20035;-85
2021/11/03 03:16:00;;;;;;;36.38;20.95;;;;;;;;;;4960228;29;20028;-85
2021/11/03 03:18:26;;;;;;;46.97;22.02;;;;;;;;;;4965229;28;20034;-84
2021/11/03 03:20:52;;;;;;;46.45;21.20;;;;;;;;;;5022551;28;20025;-85
2021/11/03 03:23:18;;;;;;;39.22;21.20;;;;;;;;;;5039980;28;20438;-85
2021/11/03 03:25:45;;;;;;;24.13;14.10;;;;;;;;;;5047672;28;20419;-85
2021/11/03 03:28:15;;;;;;;22.13;14.07;;;;;;;;;;5059882;28;20070;-84
2021/11/03 03:30:41;;;;;;;20.65;14.15;;;;;;;;;;5042453;28;20033;-84
2021/11/03 03:33:08;;;;;;;17.52;13.70;;;;;;;;;;5022249;28;20028;-85
2021/11/03 03:35:34;;;;;;;21.98;15.32;;;;;;;;;;5021646;28;20389;-84
2021/11/03 03:38:00;;;;;;;24.33;16.40;;;;;;;;;;5042163;28;20025;-85
2021/11/03 03:40:26;;;;;;;30.90;19.30;;;;;;;;;;5041193;28;20105;-84
2021/11/03 03:42:52;;;;;;;26.67;15.63;;;;;;;;;;5039598;28;20324;-84
2021/11/03 03:45:18;;;;;;;21.58;13.98;;;;;;;;;;5044297;28;20029;-83
2021/11/03 03:47:44;;;;;;;16.48;11.88;;;;;;;;;;5046092;28;20021;-85
2021/11/03 03:50:10;;;;;;;17.88;13.02;;;;;;;;;;5059432;28;20025;-85
2021/11/03 03:52:36;;;;;;;20.70;14.40;;;;;;;;;;5058302;28;20025;-85
2021/11/03 03:55:03;;;;;;;19.40;14.60;;;;;;;;;;5059117;28;20411;-87
2021/11/03 03:57:32;;;;;;;14.38;11.93;;;;;;;;;;5041448;28;20021;-87
2021/11/03 04:00:19;;;;;;;14.05;11.27;;;;;;;;;;5039614;28;20036;-87
2021/11/03 04:02:46;;;;;;;13.20;11.07;;;;;;;;;;5019858;28;20101;-88
2021/11/03 04:05:12;;;;;;;14.27;11.45;;;;;;;;;;5030392;28;20039;-87
2021/11/03 04:07:38;;;;;;;12.55;10.45;;;;;;;;;;5058097;28;20057;-87
2021/11/03 04:10:05;;;;;;;13.52;11.35;;;;;;;;;;5058816;28;20027;-87
2021/11/03 04:12:31;;;;;;;13.80;11.05;;;;;;;;;;5057683;28;20086;-86
2021/11/03 04:14:57;;;;;;;13.85;11.02;;;;;;;;;;5052290;28;20052;-86
2021/11/03 04:17:24;;;;;;;14.23;11.00;;;;;;;;;;5043386;28;20030;-86
2021/11/03 04:19:50;;;;;;;10.52;9.43;;;;;;;;;;5059033;28;20025;-85
2021/11/03 04:22:16;;;;;;;12.75;9.52;;;;;;;;;;5041219;28;20025;-86
2021/11/03 04:24:43;;;;;;;12.70;9.73;;;;;;;;;;5049161;28;20029;-84
2021/11/03 04:27:09;;;;;;;11.77;9.73;;;;;;;;;;5054942;28;20095;-85
2021/11/03 04:29:35;;;;;;;10.43;9.07;;;;;;;;;;5040797;28;20092;-86
2021/11/03 04:32:01;;;;;;;10.23;9.05;;;;;;;;;;5041130;28;20021;-85
2021/11/03 04:34:27;;;;;;;9.60;8.23;;;;;;;;;;5033890;28;20043;-85
2021/11/03 04:36:53;;;;;;;12.25;9.27;;;;;;;;;;5021087;28;20339;-85
2021/11/03 04:39:20;;;;;;;15.90;11.98;;;;;;;;;;5021093;28;20446;-84
2021/11/03 04:41:46;;;;;;;14.05;11.95;;;;;;;;;;5038771;28;20071;-85
2021/11/03 04:47:15;;;;;;;23.73;15.60;;;;;;;;;;5058537;28;20035;-85
2021/11/03 04:49:41;;;;;;;19.52;13.55;;;;;;;;;;5056727;28;20033;-85
2021/11/03 04:52:07;;;;;;;14.70;10.38;;;;;;;;;;5047297;28;20426;-84
2021/11/03 04:54:33;;;;;;;10.30;9.02;;;;;;;;;;5042816;28;20048;-83
2021/11/03 04:57:00;;;;;;;16.52;10.55;;;;;;;;;;5043706;28;20029;-84
2021/11/03 05:02:29;;;;;;;21.35;12.68;;;;;;;;;;5057737;28;20071;-82
2021/11/03 05:04:55;;;;;;;29.25;14.80;;;;;;;;;;5037645;28;20423;-85
2021/11/03 05:07:21;;;;;;;23.88;14.77;;;;;;;;;;5028621;28;20451;-83
2021/11/03 05:09:47;;;;;;;17.80;11.90;;;;;;;;;;5051394;28;20056;-86
2021/11/03 05:12:13;;;;;;;13.68;11.25;;;;;;;;;;5056985;28;20024;-84
2021/11/03 05:17:43;;;;;;;36.70;21.15;;;;;;;;;;5038497;28;20080;-84
2021/11/03 05:20:09;;;;;;;21.52;15.52;;;;;;;;;;5020389;28;20063;-85
2021/11/03 05:22:35;;;;;;;19.23;14.40;;;;;;;;;;5020382;28;20032;-84
2021/11/03 05:25:01;;;;;;;18.20;13.63;;;;;;;;;;5041643;28;20104;-84
2021/11/03 05:27:27;;;;;;;23.55;16.23;;;;;;;;;;5037825;28;20047;-84
2021/11/03 05:30:12;;;;;;;26.52;15.13;;;;;;;;;;5019485;28;20082;-85
2021/11/03 05:32:38;;;;;;;21.00;15.48;;;;;;;;;;5039825;28;20026;-84
2021/11/03 05:35:05;;;;;;;22.52;16.23;;;;;;;;;;5056029;28;20327;-86
2021/11/03 05:37:31;;;;;;;24.17;17.98;;;;;;;;;;5036676;28;20021;-86
2021/11/03 05:39:57;;;;;;;22.13;17.17;;;;;;;;;;5020271;28;20029;-86
2021/11/03 05:42:23;;;;;;;22.60;15.85;;;;;;;;;;5037623;28;20412;-85
2021/11/03 05:44:49;;;;;;;22.65;17.25;;;;;;;;;;5048733;28;20033;-86
2021/11/03 05:47:23;;;;;;;23.98;17.27;;;;;;;;;;5049767;28;20041;-85
2021/11/03 05:49:50;;;;;;;22.42;18.08;;;;;;;;;;5021106;28;20071;-86
2021/11/03 05:52:16;;;;;;;24.95;18.45;;;;;;;;;;5037443;28;20433;-86
2021/11/03 05:54:42;;;;;;;24.48;17.70;;;;;;;;;;5019376;28;20033;-85
2021/11/03 05:57:08;;;;;;;30.52;21.67;;;;;;;;;;5019938;28;20052;-86
2021/11/03 05:59:53;;;;;;;26.92;19.65;;;;;;;;;;5028090;28;20032;-86
2021/11/03 06:02:20;;;;;;;30.70;19.83;;;;;;;;;;5057358;28;20044;-85
2021/11/03 06:04:46;;;;;;;41.20;22.42;;;;;;;;;;5057432;28;20112;-85
2021/11/03 06:07:12;;;;;;;36.88;21.63;;;;;;;;;;5057183;28;20346;-86
2021/11/03 06:09:39;;;;;;;37.63;25.38;;;;;;;;;;5048227;28;20029;-85
2021/11/03 06:12:05;;;;;;;29.52;21.15;;;;;;;;;;5036992;28;20014;-84
2021/11/03 06:14:49;;;;;;;28.35;21.05;;;;;;;;;;5056370;28;20029;-85
2021/11/03 06:17:15;;;;;;;25.90;19.95;;;;;;;;;;5055915;28;20027;-84
2021/11/03 06:19:41;;;;;;;22.48;17.50;;;;;;;;;;5057095;28;20036;-83
2021/11/03 06:22:08;;;;;;;22.48;17.27;;;;;;;;;;5059024;28;20029;-84
2021/11/03 06:24:34;;;;;;;21.30;16.42;;;;;;;;;;5042582;28;20125;-84
2021/11/03 06:27:01;;;;;;;22.42;16.17;;;;;;;;;;5060803;28;20148;-85
2021/11/03 06:32:31;;;;;;;24.83;17.35;;;;;;;;;;5021337;28;20068;-83
2021/11/03 06:34:57;;;;;;;22.42;16.73;;;;;;;;;;5020575;28;20041;-94
2021/11/03 06:37:24;;;;;;;24.27;16.50;;;;;;;;;;5020898;28;20026;-85
2021/11/03 06:39:50;;;;;;;23.10;15.63;;;;;;;;;;5023423;28;20097;-85
2021/11/03 06:42:16;;;;;;;23.27;15.68;;;;;;;;;;5023382;28;20320;-85
2021/11/03 06:44:42;;;;;;;33.13;16.48;;;;;;;;;;5040918;28;20037;-86
2021/11/03 06:47:08;;;;;;;23.38;16.48;;;;;;;;;;5023007;28;20084;-86
2021/11/03 06:49:35;;;;;;;23.33;17.08;;;;;;;;;;5040738;28;20312;-85
2021/11/03 06:52:01;;;;;;;24.08;18.42;;;;;;;;;;5040286;28;20025;-86
2021/11/03 06:54:27;;;;;;;26.90;18.67;;;;;;;;;;5040766;28;20349;-85
2021/11/03 06:56:53;;;;;;;26.55;19.25;;;;;;;;;;5023203;28;20029;-85
2021/11/03 06:59:20;;;;;;;33.13;21.98;;;;;;;;;;5022834;28;20336;-85
2021/11/03 07:01:47;;;;;;;33.97;24.08;;;;;;;;;;5040401;28;20026;-85
2021/11/03 07:04:13;;;;;;;33.70;22.80;;;;;;;;;;5022673;28;20021;-86
2021/11/03 07:06:39;;;;;;;34.40;26.15;;;;;;;;;;5040126;28;20025;-86
2021/11/03 07:09:06;;;;;;;40.33;29.40;;;;;;;;;;5040194;28;20021;-85
2021/11/03 07:11:32;;;;;;;42.08;30.55;;;;;;;;;;5039990;28;20317;-85
2021/11/03 07:13:58;;;;;;;46.70;31.08;;;;;;;;;;5040315;28;20369;-85
2021/11/03 07:16:49;;;;;;;47.65;33.75;;;;;;;;;;5022521;28;20044;-85
2021/11/03 07:19:15;;;;;;;49.65;33.42;;;;;;;;;;5039891;28;20444;-86
2021/11/03 07:21:41;;;;;;;51.60;33.85;;;;;;;;;;5039855;28;20435;-83
2021/11/03 07:24:07;;;;;;;46.95;31.75;;;;;;;;;;5040137;28;20328;-86
2021/11/03 07:26:33;;;;;;;40.58;27.17;;;;;;;;;;5022296;28;20033;-85
2021/11/03 07:28:59;;;;;;;36.10;26.45;;;;;;;;;;5039655;28;20427;-84
2021/11/03 07:34:29;;;;;;;36.15;24.95;;;;;;;;;;5039737;28;20075;-85
2021/11/03 07:36:55;;;;;;;35.03;25.15;;;;;;;;;;5039471;28;20120;-84
2021/11/03 07:39:21;;;;;;;32.83;24.65;;;;;;;;;;5039466;28;20018;-85
2021/11/03 07:41:48;;;;;;;32.85;25.85;;;;;;;;;;5022101;28;20438;-85
2021/11/03 07:44:16;;;;;;;37.38;26.48;;;;;;;;;;5039588;28;20032;-85
2021/11/03 07:46:42;;;;;;;38.53;28.60;;;;;;;;;;5039508;28;20095;-85
2021/11/03 07:49:08;;;;;;;39.97;27.45;;;;;;;;;;5021778;28;20021;-86
2021/11/03 07:51:34;;;;;;;36.88;26.75;;;;;;;;;;5021783;28;20033;-83
2021/11/03 07:54:00;;;;;;;37.03;28.30;;;;;;;;;;5021991;28;20060;-89
2021/11/03 07:56:28;;;;;;;41.67;29.70;;;;;;;;;;5039599;28;20029;-88
2021/11/03 07:58:54;;;;;;;39.83;29.13;;;;;;;;;;5021717;28;20168;-88
2021/11/03 08:04:25;;;;;;;46.08;31.88;;;;;;;;;;5039373;28;20047;-85
2021/11/03 08:06:51;;;;;;;51.60;33.85;;;;;;;;;;5040133;28;20041;-89
2021/11/03 08:09:17;;;;;;;55.08;36.00;;;;;;;;;;5021676;28;20037;-89
2021/11/03 08:11:56;;;;;;;51.65;34.45;;;;;;;;;;5039319;28;20105;-89
2021/11/03 08:14:24;;;;;;;56.00;37.13;;;;;;;;;;5039054;28;20025;-89
2021/11/03 08:17:02;;;;;;;52.75;35.25;;;;;;;;;;5039374;28;20052;-89
2021/11/03 08:19:29;;;;;;;48.00;33.08;;;;;;;;;;5021643;28;20025;-88
2021/11/03 08:21:56;;;;;;;54.95;35.10;;;;;;;;;;5038762;28;20029;-89
2021/11/03 08:24:22;;;;;;;53.53;33.90;;;;;;;;;;5022188;28;20033;-89
2021/11/03 08:26:52;;;;;;;52.40;35.45;;;;;;;;;;5022282;28;20026;-89
2021/11/03 08:29:19;;;;;;;51.53;34.28;;;;;;;;;;5022066;28;20025;-89
2021/11/03 08:34:50;;;;;;;55.58;34.38;;;;;;;;;;5039733;28;20438;-89
2021/11/03 08:37:19;;;;;;;57.65;36.63;;;;;;;;;;5039444;28;20041;-87
2021/11/03 08:39:47;;;;;;;57.47;35.78;;;;;;;;;;5039451;28;20032;-88
2021/11/03 08:42:14;;;;;;;60.88;36.30;;;;;;;;;;5021853;28;20053;-89
2021/11/03 08:44:40;;;;;;;55.08;33.67;;;;;;;;;;5038533;28;20060;-88
2021/11/03 08:50:12;;;;;;;86.20;35.95;;;;;;;;;;5039442;28;20033;-89
2021/11/03 08:52:38;;;;;;;65.25;33.80;;;;;;;;;;5021682;28;20022;-87
2021/11/03 08:55:04;;;;;;;80.00;35.88;;;;;;;;;;5021582;28;20033;-86
2021/11/03 08:57:33;;;;;;;68.78;36.20;;;;;;;;;;5021667;28;20026;-89
2021/11/03 08:59:59;;;;;;;79.18;37.70;;;;;;;;;;5015670;28;20065;-88
2021/11/03 09:02:25;;;;;;;83.50;38.92;;;;;;;;;;5038395;28;20025;-88
2021/11/03 09:04:52;;;;;;;69.47;34.80;;;;;;;;;;5020725;28;20080;-89
2021/11/03 09:07:18;;;;;;;74.68;36.85;;;;;;;;;;5020300;28;20033;-88
2021/11/03 09:09:45;;;;;;;69.10;35.63;;;;;;;;;;5020052;28;20420;-88
2021/11/03 09:12:11;;;;;;;74.25;36.08;;;;;;;;;;5038480;28;20088;-88
2021/11/03 09:14:38;;;;;;;77.38;35.90;;;;;;;;;;5038033;28;20066;-88
2021/11/03 09:17:04;;;;;;;70.13;35.45;;;;;;;;;;5038098;28;20025;-88
2021/11/03 09:19:30;;;;;;;70.45;35.38;;;;;;;;;;5038070;28;20348;-88
2021/11/03 09:21:58;;;;;;;67.18;34.17;;;;;;;;;;5037960;28;20059;-87
2021/11/03 09:24:24;;;;;;;73.38;36.30;;;;;;;;;;5038009;28;20025;-88
2021/11/03 09:26:50;;;;;;;67.22;34.00;;;;;;;;;;5038056;28;20064;-88
2021/11/03 09:29:16;;;;;;;63.53;34.35;;;;;;;;;;5020328;28;20025;-88
2021/11/03 09:31:44;;;;;;;72.05;36.15;;;;;;;;;;5027039;28;20018;-88
2021/11/03 09:34:10;;;;;;;67.88;35.70;;;;;;;;;;5037327;28;20041;-88
2021/11/03 09:36:41;;;;;;;70.05;36.85;;;;;;;;;;5037499;28;20317;-88
2021/11/03 09:39:07;;;;;;;69.78;37.63;;;;;;;;;;5037907;28;20021;-88
2021/11/03 09:41:40;;;;;;;68.03;38.35;;;;;;;;;;5037856;28;20289;-88
2021/11/03 09:44:10;;;;;;;77.38;38.42;;;;;;;;;;5037854;28;20057;-89
2021/11/03 09:46:41;;;;;;;74.50;38.00;;;;;;;;;;5037828;28;20037;-88
2021/11/03 09:49:10;;;;;;;80.60;38.67;;;;;;;;;;5019788;28;20037;-88
2021/11/03 09:51:37;;;;;;;75.07;39.30;;;;;;;;;;5020568;28;20030;-89
2021/11/03 09:54:08;;;;;;;75.63;38.47;;;;;;;;;;5037676;28;20045;-88
2021/11/03 09:56:42;;;;;;;86.05;41.33;;;;;;;;;;5024279;28;20025;-88
2021/11/03 09:59:20;;;;;;;86.55;40.28;;;;;;;;;;5041794;28;20064;-89
2021/11/03 10:01:56;;;;;;;89.85;43.50;;;;;;;;;;5023770;28;20038;-88
2021/11/03 10:04:28;;;;;;;74.07;39.80;;;;;;;;;;5023986;28;20025;-90
2021/11/03 10:06:57;;;;;;;78.55;39.13;;;;;;;;;;5024091;28;20076;-88
2021/11/03 10:09:23;;;;;;;75.10;39.22;;;;;;;;;;5024088;28;20072;-89
2021/11/03 10:11:52;;;;;;;82.55;40.10;;;;;;;;;;5041803;28;20469;-88
2021/11/03 10:14:18;;;;;;;77.53;39.30;;;;;;;;;;5024172;28;20040;-89
2021/11/03 10:16:47;;;;;;;71.60;39.25;;;;;;;;;;5041216;28;20034;-89
2021/11/03 10:19:13;;;;;;;70.63;38.63;;;;;;;;;;5041397;28;20026;-88
2021/11/03 10:21:43;;;;;;;76.45;40.03;;;;;;;;;;5041348;28;20325;-88
2021/11/03 10:24:12;;;;;;;70.47;38.40;;;;;;;;;;5041016;28;20028;-88
2021/11/03 10:26:47;;;;;;;75.38;39.72;;;;;;;;;;5023648;28;20060;-89
2021/11/03 10:29:13;;;;;;;71.60;37.25;;;;;;;;;;5040938;28;20045;-88
2021/11/03 10:31:59;;;;;;;70.82;39.55;;;;;;;;;;5041240;28;20048;-89
2021/11/03 10:34:41;;;;;;;78.38;39.90;;;;;;;;;;5041068;28;20053;-89
2021/11/03 10:37:11;;;;;;;81.68;40.13;;;;;;;;;;5040712;28;20054;-90
2021/11/03 10:39:44;;;;;;;75.03;39.17;;;;;;;;;;5041039;28;20324;-88
2021/11/03 10:42:27;;;;;;;67.07;38.03;;;;;;;;;;5040808;28;20037;-88
2021/11/03 10:45:13;;;;;;;69.65;38.00;;;;;;;;;;5040696;28;20037;-89
2021/11/03 10:47:39;;;;;;;71.53;38.95;;;;;;;;;;5023371;28;20121;-89
2021/11/03 10:50:15;;;;;;;73.70;39.53;;;;;;;;;;5040724;28;20109;-89
2021/11/03 10:52:47;;;;;;;73.60;39.15;;;;;;;;;;5040287;28;20328;-88
2021/11/03 10:55:17;;;;;;;67.82;39.10;;;;;;;;;;5023104;28;20021;-89
2021/11/03 10:57:45;;;;;;;69.07;39.92;;;;;;;;;;5023102;28;20036;-89
2021/11/03 11:00:17;;;;;;;88.28;44.78;;;;;;;;;;5040463;28;20029;-89
2021/11/03 11:02:52;;;;;;;89.18;50.30;;;;;;;;;;5040582;28;20431;-88
2021/11/03 11:05:20;;;;;;;82.53;44.78;;;;;;;;;;5040642;28;20029;-89
2021/11/03 11:07:50;;;;;;;74.60;45.20;;;;;;;;;;5022256;28;20110;-89
2021/11/03 11:10:24;;;;;;;74.63;44.58;;;;;;;;;;5040230;28;20026;-88
2021/11/03 11:12:52;;;;;;;92.38;51.35;;;;;;;;;;5040644;28;20068;-89
2021/11/03 11:18:36;;;;;;;97.88;52.08;;;;;;;;;;5040345;28;20111;-88
2021/11/03 11:21:04;;;;;;;98.78;53.53;;;;;;;;;;5039948;28;20033;-89
2021/11/03 11:23:36;;;;;;;86.47;48.10;;;;;;;;;;5040064;28;20026;-89
2021/11/03 11:26:02;;;;;;;;;;;;;;;;;;5040193;28;20057;-81
2021/11/03 11:28:28;;;;;;;93.60;49.72;;;;;;;;;;5039431;28;19940;-81
2021/11/03 11:31:01;;;;;;;82.72;44.58;;;;;;;;;;5039192;28;20026;-81
2021/11/03 11:33:31;;;;;;;77.90;41.85;;;;;;;;;;5039259;28;20022;-80
2021/11/03 11:36:19;;;;;;;75.97;40.88;;;;;;;;;;5038833;28;20045;-81
2021/11/03 11:39:04;;;;;;;75.00;40.83;;;;;;;;;;5039312;28;20031;-81
2021/11/03 11:41:33;;;;;;;60.90;37.45;;;;;;;;;;5039088;28;20025;-81
2021/11/03 11:44:05;;;;;;;71.65;40.85;;;;;;;;;;5039040;28;20052;-81
2021/11/03 11:46:32;;;;;;;58.85;35.83;;;;;;;;;;5038733;28;20033;-81
2021/11/03 11:49:00;;;;;;;54.03;33.88;;;;;;;;;;5021447;28;20033;-81
2021/11/03 11:51:35;;;;;;;44.28;28.80;;;;;;;;;;5039113;28;20029;-80
2021/11/03 11:54:02;;;;;;;47.13;31.27;;;;;;;;;;5038807;28;20021;-80
2021/11/03 11:56:33;;;;;;;49.53;33.08;;;;;;;;;;5038846;28;20018;-81
2021/11/03 11:59:01;;;;;;;45.55;31.52;;;;;;;;;;5038760;28;20109;-82
2021/11/03 12:01:28;;;;;;;48.53;28.88;;;;;;;;;;5021110;28;20036;-81
2021/11/03 12:04:00;;;;;;;40.33;27.13;;;;;;;;;;5038581;28;20021;-80
2021/11/03 12:06:45;;;;;;;45.70;26.88;;;;;;;;;;5038499;28;20060;-80
2021/11/03 12:09:30;;;;;;;42.47;24.17;;;;;;;;;;5020801;28;20041;-80
2021/11/03 12:11:58;;;;;;;38.05;23.45;;;;;;;;;;5020608;28;20176;-80
2021/11/03 12:14:31;;;;;;;38.05;25.13;;;;;;;;;;5020915;28;20029;-80
2021/11/03 12:17:17;;;;;;;35.83;22.40;;;;;;;;;;5038432;28;20030;-80
2021/11/03 12:19:46;;;;;;;39.53;24.42;;;;;;;;;;5037059;28;20073;-80
2021/11/03 12:22:12;;;;;;;37.65;22.48;;;;;;;;;;5038491;28;20100;-80
2021/11/03 12:24:38;;;;;;;33.67;20.10;;;;;;;;;;5038204;28;20104;-80
2021/11/03 12:27:30;;;;;;;31.60;19.83;;;;;;;;;;5038164;28;20029;-80
2021/11/03 12:30:06;;;;;;;32.53;20.48;;;;;;;;;;5017857;28;20124;-80
2021/11/03 12:32:44;;;;;;;31.65;21.05;;;;;;;;;;5020581;28;20129;-81
2021/11/03 12:35:19;;;;;;;32.78;18.45;;;;;;;;;;5037942;28;20053;-80
2021/11/03 12:37:47;;;;;;;29.92;17.13;;;;;;;;;;5037975;28;20040;-80
2021/11/03 12:40:38;;;;;;;28.58;17.00;;;;;;;;;;5038109;28;20028;-80
2021/11/03 12:43:11;;;;;;;24.45;17.30;;;;;;;;;;5020403;28;20036;-80
2021/11/03 12:45:39;;;;;;;26.60;17.73;;;;;;;;;;5037844;28;20108;-80
2021/11/03 12:48:17;;;;;;;26.33;17.60;;;;;;;;;;5020054;28;20025;-80
2021/11/03 12:50:45;;;;;;;26.95;18.42;;;;;;;;;;5037668;28;20036;-80
2021/11/03 12:53:14;;;;;;;29.05;18.50;;;;;;;;;;5037844;28;20025;-80
2021/11/03 12:55:52;;;;;;;32.80;18.55;;;;;;;;;;5020195;28;20048;-81
2021/11/03 12:58:44;;;;;;;33.00;19.58;;;;;;;;;;5037592;28;20312;-80
2021/11/03 13:01:21;;;;;;;31.55;17.38;;;;;;;;;;5034055;28;20034;-80
2021/11/03 13:03:49;;;;;;;27.80;15.98;;;;;;;;;;5037405;28;20029;-80
2021/11/03 13:06:15;;;;;;;24.58;16.17;;;;;;;;;;5019536;28;20038;-80
2021/11/03 13:08:42;;;;;;;27.30;17.27;;;;;;;;;;5020210;28;20443;-80
2021/11/03 13:11:11;;;;;;;32.13;20.02;;;;;;;;;;5037687;28;20021;-81
2021/11/03 13:13:44;;;;;;;32.35;19.55;;;;;;;;;;5019912;28;20351;-81
2021/11/03 13:16:25;;;;;;;32.75;17.75;;;;;;;;;;5019465;28;20036;-80
2021/11/03 13:18:51;;;;;;;30.02;18.33;;;;;;;;;;5037284;28;20113;-81
2021/11/03 13:21:29;;;;;;;31.40;17.70;;;;;;;;;;5037293;28;20025;-81
2021/11/03 13:23:58;;;;;;;27.13;16.83;;;;;;;;;;5020401;28;20113;-80
2021/11/03 13:26:31;;;;;;;28.58;16.73;;;;;;;;;;5038481;28;20033;-87
2021/11/03 13:28:58;;;;;;;27.98;19.08;;;;;;;;;;5019360;28;20431;-80
2021/11/03 13:31:39;;;;;;;29.63;19.15;;;;;;;;;;5039257;28;20061;-89
2021/11/03 13:34:15;;;;;;;33.35;18.98;;;;;;;;;;5037824;28;20028;-91
2021/11/03 13:36:53;;;;;;;30.08;20.45;;;;;;;;;;5037517;28;20045;-90
2021/11/03 13:39:26;;;;;;;39.33;21.98;;;;;;;;;;5037569;28;20017;-90
2021/11/03 13:41:54;;;;;;;35.38;20.80;;;;;;;;;;5037823;28;20021;-90
2021/11/03 13:44:25;;;;;;;32.92;20.77;;;;;;;;;;5037789;28;20045;-90
2021/11/03 13:47:10;;;;;;;30.30;20.10;;;;;;;;;;5037701;28;20113;-89
2021/11/03 13:49:42;;;;;;;35.35;20.63;;;;;;;;;;5037299;28;20029;-89
2021/11/03 13:52:14;;;;;;;47.25;26.70;;;;;;;;;;5019951;28;20026;-90
2021/11/03 13:55:00;;;;;;;49.40;25.15;;;;;;;;;;5020177;28;20029;-91
2021/11/03 13:57:34;;;;;;;30.45;20.13;;;;;;;;;;5037632;28;20124;-89
2021/11/03 14:00:04;;;;;;;35.53;22.30;;;;;;;;;;5037715;28;20095;-90
2021/11/03 14:05:40;;;;;;;43.28;22.23;;;;;;;;;;5037385;28;20041;-89
2021/11/03 14:08:22;;;;;;;48.05;23.40;;;;;;;;;;5019810;28;20044;-90
2021/11/03 14:10:48;;;;;;;43.28;24.10;;;;;;;;;;5037571;28;20029;-90
2021/11/03 14:13:14;;;;;;;67.90;38.25;;;;;;;;;;5019948;28;20400;-89
2021/11/03 14:15:41;;;;;;;61.05;35.28;;;;;;;;;;5019945;28;20056;-90
2021/11/03 14:18:10;;;;;;;75.40;36.13;;;;;;;;;;5036932;28;20328;-88
2021/11/03 14:20:40;;;;;;;62.47;36.42;;;;;;;;;;5020235;28;20025;-89
2021/11/03 14:23:11;;;;;;;52.00;30.05;;;;;;;;;;5037309;28;20026;-89
2021/11/03 14:25:38;;;;;;;41.22;26.35;;;;;;;;;;5037449;28;20025;-89
2021/11/03 14:28:06;;;;;;;42.08;26.02;;;;;;;;;;5037404;28;20100;-89
2021/11/03 14:30:41;;;;;;;49.60;27.20;;;;;;;;;;5019778;28;20037;-89
2021/11/03 14:33:20;;;;;;;44.90;24.88;;;;;;;;;;5019793;28;20029;-89
2021/11/03 14:35:46;;;;;;;42.28;23.63;;;;;;;;;;5019432;28;20432;-88
2021/11/03 14:38:24;;;;;;;37.00;21.90;;;;;;;;;;5019757;28;20037;-88
2021/11/03 14:40:51;;;;;;;35.45;22.05;;;;;;;;;;5020211;28;20025;-87
2021/11/03 14:43:17;;;;;;;35.03;20.40;;;;;;;;;;5040706;28;20026;-87
2021/11/03 14:45:44;;;;;;;30.48;21.42;;;;;;;;;;5022918;28;20061;-88
2021/11/03 14:48:17;;;;;;;35.45;23.05;;;;;;;;;;5040838;28;20021;-87
2021/11/03 14:50:43;;;;;;;32.00;20.90;;;;;;;;;;5023242;28;20025;-87
2021/11/03 14:53:15;;;;;;;36.95;22.02;;;;;;;;;;5040834;28;20017;-87
2021/11/03 14:55:44;;;;;;;31.77;18.80;;;;;;;;;;5023125;28;20025;-87
2021/11/03 14:58:11;;;;;;;32.35;20.27;;;;;;;;;;5040893;28;20022;-87
2021/11/03 15:00:49;;;;;;;44.60;26.40;;;;;;;;;;5023195;28;20025;-86
2021/11/03 15:03:15;;;;;;;39.92;23.08;;;;;;;;;;5023032;28;20029;-86
2021/11/03 15:05:41;;;;;;;60.58;32.92;;;;;;;;;;5023008;28;20484;-85
2021/11/03 15:08:15;;;;;;;120.43;63.38;;;;;;;;;;5022771;28;20034;-85
2021/11/03 15:10:41;;;;;;;172.10;82.80;;;;;;;;;;5040396;28;20047;-85